Overview Statistics Trail Chart Weather Telemetry Raw packets
 

This is the latest recevied weather packets stored in our database for station/object EA1HTW-13. If no packets are shown the sender has not sent any weather packets the latest 10 day(s).

<< 52 53 54 55 56 57 58 >>
Time Temp. Humidity Pressure Rain* Wind** Luminosity Snow
1777282703 22.22° C 61% 1008.6 hPa 0 mm - - -
1777282164 21.67° C 61% 1008.7 hPa 0 mm - - -
1777281621 21.67° C 62% 1008.6 hPa 0 mm - - -
1777281083 21.11° C 62% 1008.7 hPa 0 mm - - -
1777280542 21.11° C 62% 1008.6 hPa 0 mm - - -
1777280003 20.56° C 63% 1008.6 hPa 0 mm - - -
1777279462 20.56° C 63% 1008.7 hPa 0 mm - - -
1777278923 20° C 64% 1008.8 hPa 0 mm - - -
1777278381 20° C 66% 1008.8 hPa 0 mm - - -
1777277843 19.44° C 67% 1008.8 hPa 0 mm - - -
1777277302 19.44° C 69% 1008.7 hPa 0 mm - - -
1777276763 18.89° C 70% 1008.9 hPa 0 mm - - -
1777276221 18.33° C 70% 1008.9 hPa 0 mm - - -
1777275683 18.33° C 71% 1008.9 hPa 0 mm - - -
1777275141 17.78° C 71% 1009 hPa 0 mm - - -
1777274603 17.78° C 72% 1009.1 hPa 0 mm - - -
1777274063 17.22° C 77% 1009.1 hPa 0 mm - - -
1777273523 17.22° C 77% 1009.2 hPa 0 mm - - -
1777272982 16.67° C 77% 1009.1 hPa 0 mm - - -
1777272442 16.67° C 77% 1009 hPa 0 mm - - -
1777271902 16.11° C 77% 1009.1 hPa 0 mm - - -
1777271363 16.11° C 77% 1009 hPa 0 mm - - -
1777270822 16.11° C 77% 1008.9 hPa 0 mm - - -
1777270281 15.56° C 76% 1009.1 hPa 0 mm - - -
1777269742 15.56° C 76% 1008.8 hPa 0 mm - - -

* Rain latest hour (hover to see other rain measurements)
** Current wind speed in m/s (hover to see current wind gust speed)